sensor_id;sensor_type;location;lat;lon;timestamp;temperature;humidity
423;DHT22;198;48.752;9.180;2023-04-25T00:01:17;9.40;99.90
423;DHT22;198;48.752;9.180;2023-04-25T00:03:44;9.40;99.90
423;DHT22;198;48.752;9.180;2023-04-25T00:06:09;9.40;99.90
423;DHT22;198;48.752;9.180;2023-04-25T00:08:35;9.40;99.90
423;DHT22;198;48.752;9.180;2023-04-25T00:11:01;9.30;99.90
423;DHT22;198;48.752;9.180;2023-04-25T00:13:26;9.20;99.90
423;DHT22;198;48.752;9.180;2023-04-25T00:15:52;9.20;99.90
423;DHT22;198;48.752;9.180;2023-04-25T00:18:19;9.10;99.90
423;DHT22;198;48.752;9.180;2023-04-25T00:20:44;9.10;99.90
423;DHT22;198;48.752;9.180;2023-04-25T00:23:13;9.00;99.90
423;DHT22;198;48.752;9.180;2023-04-25T00:25:43;9.00;99.90
423;DHT22;198;48.752;9.180;2023-04-25T00:28:10;9.00;99.90
423;DHT22;198;48.752;9.180;2023-04-25T00:30:35;9.00;99.90
423;DHT22;198;48.752;9.180;2023-04-25T00:33:01;9.00;99.90
423;DHT22;198;48.752;9.180;2023-04-25T00:35:27;9.00;99.90
423;DHT22;198;48.752;9.180;2023-04-25T00:37:52;9.00;99.90
423;DHT22;198;48.752;9.180;2023-04-25T00:40:18;9.00;99.90
423;DHT22;198;48.752;9.180;2023-04-25T00:42:44;9.00;99.90
423;DHT22;198;48.752;9.180;2023-04-25T00:45:13;9.00;99.90
423;DHT22;198;48.752;9.180;2023-04-25T00:47:40;9.00;99.90
423;DHT22;198;48.752;9.180;2023-04-25T00:50:06;9.10;99.90
423;DHT22;198;48.752;9.180;2023-04-25T00:52:32;9.00;99.90
423;DHT22;198;48.752;9.180;2023-04-25T00:54:57;9.00;99.90
423;DHT22;198;48.752;9.180;2023-04-25T00:57:23;9.00;99.90
423;DHT22;198;48.752;9.180;2023-04-25T00:59:51;9.00;99.90
423;DHT22;198;48.752;9.180;2023-04-25T01:02:17;9.00;99.90
423;DHT22;198;48.752;9.180;2023-04-25T01:04:42;9.10;99.90
423;DHT22;198;48.752;9.180;2023-04-25T01:07:09;9.10;99.90
423;DHT22;198;48.752;9.180;2023-04-25T01:09:35;9.20;99.90
423;DHT22;198;48.752;9.180;2023-04-25T01:12:01;9.20;99.90
423;DHT22;198;48.752;9.180;2023-04-25T01:14:28;9.20;99.90
423;DHT22;198;48.752;9.180;2023-04-25T01:16:54;9.20;99.90
423;DHT22;198;48.752;9.180;2023-04-25T01:19:19;9.30;99.90
423;DHT22;198;48.752;9.180;2023-04-25T01:21:45;9.30;99.90
423;DHT22;198;48.752;9.180;2023-04-25T01:24:11;9.30;99.90
423;DHT22;198;48.752;9.180;2023-04-25T01:26:37;9.30;99.90
423;DHT22;198;48.752;9.180;2023-04-25T01:29:04;9.30;99.90
423;DHT22;198;48.752;9.180;2023-04-25T01:31:30;9.20;99.90
423;DHT22;198;48.752;9.180;2023-04-25T01:33:57;9.20;99.90
423;DHT22;198;48.752;9.180;2023-04-25T01:36:22;9.30;99.90
423;DHT22;198;48.752;9.180;2023-04-25T01:38:48;9.30;99.90
423;DHT22;198;48.752;9.180;2023-04-25T01:41:14;9.20;99.90
423;DHT22;198;48.752;9.180;2023-04-25T01:43:40;9.20;99.90
423;DHT22;198;48.752;9.180;2023-04-25T01:46:06;9.20;99.90
423;DHT22;198;48.752;9.180;2023-04-25T01:48:32;9.20;99.90
423;DHT22;198;48.752;9.180;2023-04-25T01:50:58;9.20;99.90
423;DHT22;198;48.752;9.180;2023-04-25T01:53:23;9.20;99.90
423;DHT22;198;48.752;9.180;2023-04-25T01:55:49;9.20;99.90
423;DHT22;198;48.752;9.180;2023-04-25T01:58:15;9.10;99.90
423;DHT22;198;48.752;9.180;2023-04-25T02:00:40;9.00;99.90
423;DHT22;198;48.752;9.180;2023-04-25T02:03:07;8.90;99.90
423;DHT22;198;48.752;9.180;2023-04-25T02:05:37;8.90;99.90
423;DHT22;198;48.752;9.180;2023-04-25T02:08:04;8.90;99.90
423;DHT22;198;48.752;9.180;2023-04-25T02:10:30;8.80;99.90
423;DHT22;198;48.752;9.180;2023-04-25T02:12:57;8.80;99.90
423;DHT22;198;48.752;9.180;2023-04-25T02:15:22;8.80;99.90
423;DHT22;198;48.752;9.180;2023-04-25T02:17:48;8.70;99.90
423;DHT22;198;48.752;9.180;2023-04-25T02:20:14;8.70;99.90
423;DHT22;198;48.752;9.180;2023-04-25T02:22:41;8.60;99.90
423;DHT22;198;48.752;9.180;2023-04-25T02:25:07;8.60;99.90
423;DHT22;198;48.752;9.180;2023-04-25T02:27:34;8.60;99.90
423;DHT22;198;48.752;9.180;2023-04-25T02:30:00;8.50;99.90
423;DHT22;198;48.752;9.180;2023-04-25T02:32:25;8.50;99.90
423;DHT22;198;48.752;9.180;2023-04-25T02:34:51;8.50;99.90
423;DHT22;198;48.752;9.180;2023-04-25T02:37:16;8.40;99.90
423;DHT22;198;48.752;9.180;2023-04-25T02:39:42;8.40;99.90
423;DHT22;198;48.752;9.180;2023-04-25T02:42:07;8.40;99.90
423;DHT22;198;48.752;9.180;2023-04-25T02:44:33;8.30;99.90
423;DHT22;198;48.752;9.180;2023-04-25T02:46:58;8.30;99.90
423;DHT22;198;48.752;9.180;2023-04-25T02:49:23;8.30;99.90
423;DHT22;198;48.752;9.180;2023-04-25T02:51:49;8.30;99.90
423;DHT22;198;48.752;9.180;2023-04-25T02:54:15;8.40;99.90
423;DHT22;198;48.752;9.180;2023-04-25T02:56:40;8.30;99.90
423;DHT22;198;48.752;9.180;2023-04-25T02:59:05;8.30;99.90
423;DHT22;198;48.752;9.180;2023-04-25T03:01:31;8.40;99.90
423;DHT22;198;48.752;9.180;2023-04-25T03:03:56;8.40;99.90
423;DHT22;198;48.752;9.180;2023-04-25T03:06:22;8.30;99.90
423;DHT22;198;48.752;9.180;2023-04-25T03:08:47;8.30;99.90
423;DHT22;198;48.752;9.180;2023-04-25T03:11:13;8.20;99.90
423;DHT22;198;48.752;9.180;2023-04-25T03:13:38;8.20;99.90
423;DHT22;198;48.752;9.180;2023-04-25T03:16:04;8.20;99.90
423;DHT22;198;48.752;9.180;2023-04-25T03:18:30;8.20;99.90
423;DHT22;198;48.752;9.180;2023-04-25T03:20:55;8.30;99.90
423;DHT22;198;48.752;9.180;2023-04-25T03:23:21;8.30;99.90
423;DHT22;198;48.752;9.180;2023-04-25T03:25:46;8.40;99.90
423;DHT22;198;48.752;9.180;2023-04-25T03:28:12;8.40;99.90
423;DHT22;198;48.752;9.180;2023-04-25T03:30:37;8.50;99.90
423;DHT22;198;48.752;9.180;2023-04-25T03:33:03;8.50;99.90
423;DHT22;198;48.752;9.180;2023-04-25T03:35:28;8.50;99.90
423;DHT22;198;48.752;9.180;2023-04-25T03:37:54;8.50;99.90
423;DHT22;198;48.752;9.180;2023-04-25T03:40:19;8.50;99.90
423;DHT22;198;48.752;9.180;2023-04-25T03:42:45;8.50;99.90
423;DHT22;198;48.752;9.180;2023-04-25T03:45:11;8.50;99.90
423;DHT22;198;48.752;9.180;2023-04-25T03:47:36;8.50;99.90
423;DHT22;198;48.752;9.180;2023-04-25T03:50:02;8.50;99.90
423;DHT22;198;48.752;9.180;2023-04-25T03:52:28;8.50;99.90
423;DHT22;198;48.752;9.180;2023-04-25T03:54:53;8.50;99.90
423;DHT22;198;48.752;9.180;2023-04-25T03:57:19;8.50;99.90
423;DHT22;198;48.752;9.180;2023-04-25T03:59:45;8.50;99.90
423;DHT22;198;48.752;9.180;2023-04-25T04:02:10;8.50;99.90
423;DHT22;198;48.752;9.180;2023-04-25T04:04:36;8.50;99.90
423;DHT22;198;48.752;9.180;2023-04-25T04:07:01;8.40;99.90
423;DHT22;198;48.752;9.180;2023-04-25T04:09:27;8.30;99.90
423;DHT22;198;48.752;9.180;2023-04-25T04:11:53;8.30;99.90
423;DHT22;198;48.752;9.180;2023-04-25T04:14:18;8.30;99.90
423;DHT22;198;48.752;9.180;2023-04-25T04:16:44;8.20;99.90
423;DHT22;198;48.752;9.180;2023-04-25T04:19:10;8.20;99.90
423;DHT22;198;48.752;9.180;2023-04-25T04:21:35;8.20;99.90
423;DHT22;198;48.752;9.180;2023-04-25T04:24:01;8.10;99.90
423;DHT22;198;48.752;9.180;2023-04-25T04:26:27;8.10;99.90
423;DHT22;198;48.752;9.180;2023-04-25T04:28:52;8.10;99.90
423;DHT22;198;48.752;9.180;2023-04-25T04:31:20;8.10;99.90
423;DHT22;198;48.752;9.180;2023-04-25T04:33:46;8.10;99.90
423;DHT22;198;48.752;9.180;2023-04-25T04:36:12;8.10;99.90
423;DHT22;198;48.752;9.180;2023-04-25T04:38:38;8.10;99.90
423;DHT22;198;48.752;9.180;2023-04-25T04:41:04;8.20;99.90
423;DHT22;198;48.752;9.180;2023-04-25T04:43:29;8.20;99.90
423;DHT22;198;48.752;9.180;2023-04-25T04:45:55;8.20;99.90
423;DHT22;198;48.752;9.180;2023-04-25T04:48:24;8.20;99.90
423;DHT22;198;48.752;9.180;2023-04-25T04:50:49;8.10;99.90
423;DHT22;198;48.752;9.180;2023-04-25T04:53:15;8.10;99.90
423;DHT22;198;48.752;9.180;2023-04-25T04:55:40;8.20;99.90
423;DHT22;198;48.752;9.180;2023-04-25T04:58:07;8.20;99.90
423;DHT22;198;48.752;9.180;2023-04-25T05:00:32;8.20;99.90
423;DHT22;198;48.752;9.180;2023-04-25T05:02:58;8.30;99.90
423;DHT22;198;48.752;9.180;2023-04-25T05:05:24;8.30;99.90
423;DHT22;198;48.752;9.180;2023-04-25T05:07:50;8.40;99.90
423;DHT22;198;48.752;9.180;2023-04-25T05:10:17;8.40;99.90
423;DHT22;198;48.752;9.180;2023-04-25T05:12:42;8.50;99.90
423;DHT22;198;48.752;9.180;2023-04-25T05:15:08;8.50;99.90
423;DHT22;198;48.752;9.180;2023-04-25T05:17:34;8.60;99.90
423;DHT22;198;48.752;9.180;2023-04-25T05:19:59;8.60;99.90
423;DHT22;198;48.752;9.180;2023-04-25T05:22:25;8.70;99.90
423;DHT22;198;48.752;9.180;2023-04-25T05:24:51;8.80;99.90
423;DHT22;198;48.752;9.180;2023-04-25T05:27:17;8.90;99.90
423;DHT22;198;48.752;9.180;2023-04-25T05:29:43;9.00;99.90
423;DHT22;198;48.752;9.180;2023-04-25T05:32:08;9.00;99.90
423;DHT22;198;48.752;9.180;2023-04-25T05:34:35;9.00;99.90
423;DHT22;198;48.752;9.180;2023-04-25T05:37:00;9.00;99.90
423;DHT22;198;48.752;9.180;2023-04-25T05:39:26;9.10;99.90
423;DHT22;198;48.752;9.180;2023-04-25T05:41:52;9.20;99.90
423;DHT22;198;48.752;9.180;2023-04-25T05:44:17;9.30;99.90
423;DHT22;198;48.752;9.180;2023-04-25T05:46:43;9.40;99.90
423;DHT22;198;48.752;9.180;2023-04-25T05:49:08;9.60;99.90
423;DHT22;198;48.752;9.180;2023-04-25T05:51:34;9.70;99.90
423;DHT22;198;48.752;9.180;2023-04-25T05:53:59;9.70;99.90
423;DHT22;198;48.752;9.180;2023-04-25T05:56:25;9.80;99.90
423;DHT22;198;48.752;9.180;2023-04-25T05:58:51;9.70;99.90
423;DHT22;198;48.752;9.180;2023-04-25T06:01:16;9.70;99.90
423;DHT22;198;48.752;9.180;2023-04-25T06:03:42;9.60;99.90
423;DHT22;198;48.752;9.180;2023-04-25T06:06:08;9.50;99.90
423;DHT22;198;48.752;9.180;2023-04-25T06:08:34;9.50;99.90
423;DHT22;198;48.752;9.180;2023-04-25T06:11:00;9.40;99.90
423;DHT22;198;48.752;9.180;2023-04-25T06:13:26;9.50;99.90
423;DHT22;198;48.752;9.180;2023-04-25T06:15:51;9.50;99.90
423;DHT22;198;48.752;9.180;2023-04-25T06:18:17;9.50;99.90
423;DHT22;198;48.752;9.180;2023-04-25T06:20:42;9.60;99.90
423;DHT22;198;48.752;9.180;2023-04-25T06:23:07;9.70;99.90
423;DHT22;198;48.752;9.180;2023-04-25T06:25:33;9.70;99.90
423;DHT22;198;48.752;9.180;2023-04-25T06:27:58;9.70;99.90
423;DHT22;198;48.752;9.180;2023-04-25T06:30:25;9.70;99.90
423;DHT22;198;48.752;9.180;2023-04-25T06:32:51;9.70;99.90
423;DHT22;198;48.752;9.180;2023-04-25T06:35:18;9.70;99.90
423;DHT22;198;48.752;9.180;2023-04-25T06:37:43;9.80;99.90
423;DHT22;198;48.752;9.180;2023-04-25T06:40:09;9.70;99.90
423;DHT22;198;48.752;9.180;2023-04-25T06:42:35;9.80;99.90
423;DHT22;198;48.752;9.180;2023-04-25T06:45:01;9.80;99.90
423;DHT22;198;48.752;9.180;2023-04-25T06:47:26;9.80;99.90
423;DHT22;198;48.752;9.180;2023-04-25T06:49:52;9.80;99.90
423;DHT22;198;48.752;9.180;2023-04-25T06:52:17;9.70;99.90
423;DHT22;198;48.752;9.180;2023-04-25T06:54:43;9.60;99.90
423;DHT22;198;48.752;9.180;2023-04-25T06:57:09;9.60;99.90
423;DHT22;198;48.752;9.180;2023-04-25T06:59:34;9.50;99.90
423;DHT22;198;48.752;9.180;2023-04-25T07:02:00;9.50;99.90
423;DHT22;198;48.752;9.180;2023-04-25T07:04:25;9.60;99.90
423;DHT22;198;48.752;9.180;2023-04-25T07:06:51;9.60;99.90
423;DHT22;198;48.752;9.180;2023-04-25T07:09:16;9.70;99.90
423;DHT22;198;48.752;9.180;2023-04-25T07:11:42;9.80;99.90
423;DHT22;198;48.752;9.180;2023-04-25T07:14:07;9.80;99.90
423;DHT22;198;48.752;9.180;2023-04-25T07:16:33;9.90;99.90
423;DHT22;198;48.752;9.180;2023-04-25T07:18:58;10.00;99.90
423;DHT22;198;48.752;9.180;2023-04-25T07:21:25;10.10;99.90
423;DHT22;198;48.752;9.180;2023-04-25T07:23:50;10.00;99.90
423;DHT22;198;48.752;9.180;2023-04-25T07:26:16;10.00;99.90
423;DHT22;198;48.752;9.180;2023-04-25T07:28:42;10.10;99.90
423;DHT22;198;48.752;9.180;2023-04-25T07:31:08;10.10;99.90
423;DHT22;198;48.752;9.180;2023-04-25T07:33:34;10.10;99.90
423;DHT22;198;48.752;9.180;2023-04-25T07:36:00;10.00;99.90
423;DHT22;198;48.752;9.180;2023-04-25T07:38:26;9.80;99.90
423;DHT22;198;48.752;9.180;2023-04-25T07:40:51;9.70;99.90
423;DHT22;198;48.752;9.180;2023-04-25T07:43:17;9.70;99.90
423;DHT22;198;48.752;9.180;2023-04-25T07:45:43;9.50;99.90
423;DHT22;198;48.752;9.180;2023-04-25T07:48:09;9.50;99.90
423;DHT22;198;48.752;9.180;2023-04-25T07:50:35;9.40;99.90
423;DHT22;198;48.752;9.180;2023-04-25T07:53:00;9.40;99.90
423;DHT22;198;48.752;9.180;2023-04-25T07:55:26;9.40;99.90
423;DHT22;198;48.752;9.180;2023-04-25T07:57:52;9.50;99.90
423;DHT22;198;48.752;9.180;2023-04-25T08:00:18;9.40;99.90
423;DHT22;198;48.752;9.180;2023-04-25T08:02:43;9.50;99.90
423;DHT22;198;48.752;9.180;2023-04-25T08:05:09;9.50;99.90
423;DHT22;198;48.752;9.180;2023-04-25T08:07:37;9.50;99.90
423;DHT22;198;48.752;9.180;2023-04-25T08:10:05;9.50;99.90
423;DHT22;198;48.752;9.180;2023-04-25T08:12:31;9.50;99.90
423;DHT22;198;48.752;9.180;2023-04-25T08:14:56;9.40;99.90
423;DHT22;198;48.752;9.180;2023-04-25T08:17:22;9.40;99.90
423;DHT22;198;48.752;9.180;2023-04-25T08:19:47;9.50;99.90
423;DHT22;198;48.752;9.180;2023-04-25T08:22:13;9.50;99.90
423;DHT22;198;48.752;9.180;2023-04-25T08:24:38;9.50;99.90
423;DHT22;198;48.752;9.180;2023-04-25T08:27:04;9.40;99.90
423;DHT22;198;48.752;9.180;2023-04-25T08:29:29;9.40;99.90
423;DHT22;198;48.752;9.180;2023-04-25T08:31:55;9.60;99.90
423;DHT22;198;48.752;9.180;2023-04-25T08:34:20;9.50;99.90
423;DHT22;198;48.752;9.180;2023-04-25T08:36:46;9.40;99.90
423;DHT22;198;48.752;9.180;2023-04-25T08:39:11;9.40;99.90
423;DHT22;198;48.752;9.180;2023-04-25T08:41:38;9.40;99.90
423;DHT22;198;48.752;9.180;2023-04-25T08:44:08;9.40;99.90
423;DHT22;198;48.752;9.180;2023-04-25T08:46:35;9.40;99.90
423;DHT22;198;48.752;9.180;2023-04-25T08:49:02;9.40;99.90
423;DHT22;198;48.752;9.180;2023-04-25T08:51:33;9.40;99.90
423;DHT22;198;48.752;9.180;2023-04-25T08:54:10;9.50;99.90
423;DHT22;198;48.752;9.180;2023-04-25T08:56:38;9.50;99.90
423;DHT22;198;48.752;9.180;2023-04-25T08:59:03;9.50;99.90
423;DHT22;198;48.752;9.180;2023-04-25T09:01:30;9.40;99.90
423;DHT22;198;48.752;9.180;2023-04-25T09:03:56;9.30;99.90
423;DHT22;198;48.752;9.180;2023-04-25T09:06:23;9.30;99.90
423;DHT22;198;48.752;9.180;2023-04-25T09:08:50;9.30;99.90
423;DHT22;198;48.752;9.180;2023-04-25T09:11:15;9.40;99.90
423;DHT22;198;48.752;9.180;2023-04-25T09:13:41;9.50;99.90
423;DHT22;198;48.752;9.180;2023-04-25T09:16:06;9.60;99.90
423;DHT22;198;48.752;9.180;2023-04-25T09:18:33;9.70;99.90
423;DHT22;198;48.752;9.180;2023-04-25T09:21:09;9.70;99.90
423;DHT22;198;48.752;9.180;2023-04-25T09:23:46;9.60;99.90
423;DHT22;198;48.752;9.180;2023-04-25T09:26:19;9.50;99.90
423;DHT22;198;48.752;9.180;2023-04-25T09:28:46;9.60;99.90
423;DHT22;198;48.752;9.180;2023-04-25T09:31:24;9.60;99.90
423;DHT22;198;48.752;9.180;2023-04-25T09:33:59;9.60;99.90
423;DHT22;198;48.752;9.180;2023-04-25T09:36:26;9.60;99.90
423;DHT22;198;48.752;9.180;2023-04-25T09:38:52;9.50;99.90
423;DHT22;198;48.752;9.180;2023-04-25T09:41:23;9.30;99.90
423;DHT22;198;48.752;9.180;2023-04-25T09:43:49;9.20;99.90
423;DHT22;198;48.752;9.180;2023-04-25T09:46:15;9.00;99.90
423;DHT22;198;48.752;9.180;2023-04-25T09:48:48;8.90;99.90
423;DHT22;198;48.752;9.180;2023-04-25T09:51:14;8.80;99.90
423;DHT22;198;48.752;9.180;2023-04-25T09:53:42;8.80;99.90
423;DHT22;198;48.752;9.180;2023-04-25T09:56:10;8.80;99.90
423;DHT22;198;48.752;9.180;2023-04-25T09:58:37;8.70;99.90
423;DHT22;198;48.752;9.180;2023-04-25T10:01:08;8.40;99.90
423;DHT22;198;48.752;9.180;2023-04-25T10:03:36;8.40;99.90
423;DHT22;198;48.752;9.180;2023-04-25T10:06:04;8.40;99.90
423;DHT22;198;48.752;9.180;2023-04-25T10:08:36;8.40;99.90
423;DHT22;198;48.752;9.180;2023-04-25T10:11:04;8.40;99.90
423;DHT22;198;48.752;9.180;2023-04-25T10:13:31;8.40;99.90
423;DHT22;198;48.752;9.180;2023-04-25T10:16:02;8.30;99.90
423;DHT22;198;48.752;9.180;2023-04-25T10:18:30;8.30;99.90
423;DHT22;198;48.752;9.180;2023-04-25T10:21:01;8.20;99.90
423;DHT22;198;48.752;9.180;2023-04-25T10:23:27;8.30;99.90
423;DHT22;198;48.752;9.180;2023-04-25T10:25:55;8.40;99.90
423;DHT22;198;48.752;9.180;2023-04-25T10:28:21;8.40;99.90
423;DHT22;198;48.752;9.180;2023-04-25T10:31:07;8.60;99.90
423;DHT22;198;48.752;9.180;2023-04-25T10:33:34;8.70;99.90
423;DHT22;198;48.752;9.180;2023-04-25T10:36:12;8.80;99.90
423;DHT22;198;48.752;9.180;2023-04-25T10:38:38;8.80;99.90
423;DHT22;198;48.752;9.180;2023-04-25T10:41:06;8.70;99.90
423;DHT22;198;48.752;9.180;2023-04-25T10:43:35;8.70;99.90
423;DHT22;198;48.752;9.180;2023-04-25T10:46:12;8.70;99.90
423;DHT22;198;48.752;9.180;2023-04-25T10:49:28;8.70;99.90
423;DHT22;198;48.752;9.180;2023-04-25T10:51:36;8.70;99.90
423;DHT22;198;48.752;9.180;2023-04-25T10:56:36;8.80;99.90
423;DHT22;198;48.752;9.180;2023-04-25T10:59:19;9.00;99.90
423;DHT22;198;48.752;9.180;2023-04-25T11:01:53;9.00;99.90
423;DHT22;198;48.752;9.180;2023-04-25T11:04:32;9.00;99.90
423;DHT22;198;48.752;9.180;2023-04-25T11:07:29;9.10;99.90
423;DHT22;198;48.752;9.180;2023-04-25T11:10:01;9.10;99.90
423;DHT22;198;48.752;9.180;2023-04-25T11:12:27;9.10;99.90
423;DHT22;198;48.752;9.180;2023-04-25T11:14:59;9.20;99.90
423;DHT22;198;48.752;9.180;2023-04-25T11:17:26;9.20;99.90
423;DHT22;198;48.752;9.180;2023-04-25T11:19:51;9.30;99.90
423;DHT22;198;48.752;9.180;2023-04-25T11:22:17;9.50;99.90
423;DHT22;198;48.752;9.180;2023-04-25T11:24:43;9.70;99.90
423;DHT22;198;48.752;9.180;2023-04-25T11:27:08;9.90;99.90
423;DHT22;198;48.752;9.180;2023-04-25T11:29:34;10.10;99.90
423;DHT22;198;48.752;9.180;2023-04-25T11:32:00;10.30;99.90
423;DHT22;198;48.752;9.180;2023-04-25T11:34:27;10.40;99.90
423;DHT22;198;48.752;9.180;2023-04-25T11:36:55;10.60;99.90
423;DHT22;198;48.752;9.180;2023-04-25T11:39:21;10.80;99.90
423;DHT22;198;48.752;9.180;2023-04-25T11:41:47;10.90;99.90
423;DHT22;198;48.752;9.180;2023-04-25T11:44:16;11.00;99.90
423;DHT22;198;48.752;9.180;2023-04-25T11:46:42;11.00;99.90
423;DHT22;198;48.752;9.180;2023-04-25T11:49:08;11.10;99.90
423;DHT22;198;48.752;9.180;2023-04-25T11:51:43;11.20;99.90
423;DHT22;198;48.752;9.180;2023-04-25T11:54:09;11.50;99.90
423;DHT22;198;48.752;9.180;2023-04-25T11:56:35;11.70;99.90
423;DHT22;198;48.752;9.180;2023-04-25T11:59:03;11.70;99.90
423;DHT22;198;48.752;9.180;2023-04-25T12:01:33;11.70;99.90
423;DHT22;198;48.752;9.180;2023-04-25T12:04:10;11.60;99.90
423;DHT22;198;48.752;9.180;2023-04-25T12:06:39;11.60;99.90
423;DHT22;198;48.752;9.180;2023-04-25T12:09:08;11.70;99.90
423;DHT22;198;48.752;9.180;2023-04-25T12:11:46;11.70;99.90
423;DHT22;198;48.752;9.180;2023-04-25T12:14:33;11.70;99.90
423;DHT22;198;48.752;9.180;2023-04-25T12:17:01;11.60;99.90
423;DHT22;198;48.752;9.180;2023-04-25T12:19:35;11.60;99.90
423;DHT22;198;48.752;9.180;2023-04-25T12:22:01;11.70;99.90
423;DHT22;198;48.752;9.180;2023-04-25T12:24:28;11.70;99.90
423;DHT22;198;48.752;9.180;2023-04-25T12:27:00;11.80;99.90
423;DHT22;198;48.752;9.180;2023-04-25T12:29:27;11.60;99.90
423;DHT22;198;48.752;9.180;2023-04-25T12:31:54;11.50;99.90
423;DHT22;198;48.752;9.180;2023-04-25T12:34:21;11.30;99.90
423;DHT22;198;48.752;9.180;2023-04-25T12:36:47;11.10;99.90
423;DHT22;198;48.752;9.180;2023-04-25T12:39:17;11.00;99.90
423;DHT22;198;48.752;9.180;2023-04-25T12:41:43;10.80;99.90
423;DHT22;198;48.752;9.180;2023-04-25T12:44:09;11.10;99.90
423;DHT22;198;48.752;9.180;2023-04-25T12:46:35;11.10;99.90
423;DHT22;198;48.752;9.180;2023-04-25T12:49:01;11.40;99.90
423;DHT22;198;48.752;9.180;2023-04-25T12:51:26;11.50;99.90
423;DHT22;198;48.752;9.180;2023-04-25T12:53:53;11.60;99.90
423;DHT22;198;48.752;9.180;2023-04-25T12:56:18;11.50;99.90
423;DHT22;198;48.752;9.180;2023-04-25T12:58:44;11.80;99.90
423;DHT22;198;48.752;9.180;2023-04-25T13:01:10;12.60;99.90
423;DHT22;198;48.752;9.180;2023-04-25T13:03:36;13.20;99.90
423;DHT22;198;48.752;9.180;2023-04-25T13:06:02;13.80;99.90
423;DHT22;198;48.752;9.180;2023-04-25T13:08:28;14.50;99.90
423;DHT22;198;48.752;9.180;2023-04-25T13:10:53;14.80;99.90
423;DHT22;198;48.752;9.180;2023-04-25T13:13:18;15.20;98.20
423;DHT22;198;48.752;9.180;2023-04-25T13:15:44;15.70;96.90
423;DHT22;198;48.752;9.180;2023-04-25T13:18:10;16.50;98.50
423;DHT22;198;48.752;9.180;2023-04-25T13:20:35;16.90;93.20
423;DHT22;198;48.752;9.180;2023-04-25T13:23:01;17.30;91.30
423;DHT22;198;48.752;9.180;2023-04-25T13:25:26;17.00;85.00
423;DHT22;198;48.752;9.180;2023-04-25T13:27:52;16.70;89.60
423;DHT22;198;48.752;9.180;2023-04-25T13:30:17;16.20;87.00
423;DHT22;198;48.752;9.180;2023-04-25T13:32:43;15.50;89.40
423;DHT22;198;48.752;9.180;2023-04-25T13:35:11;15.30;91.10
423;DHT22;198;48.752;9.180;2023-04-25T13:37:37;15.10;92.30
423;DHT22;198;48.752;9.180;2023-04-25T13:40:07;14.90;91.50
423;DHT22;198;48.752;9.180;2023-04-25T13:42:34;14.50;92.90
423;DHT22;198;48.752;9.180;2023-04-25T13:45:00;14.30;92.30
423;DHT22;198;48.752;9.180;2023-04-25T13:47:26;14.10;93.50
423;DHT22;198;48.752;9.180;2023-04-25T13:49:52;14.00;94.60
423;DHT22;198;48.752;9.180;2023-04-25T13:52:18;14.20;97.20
423;DHT22;198;48.752;9.180;2023-04-25T13:54:43;14.40;97.30
423;DHT22;198;48.752;9.180;2023-04-25T13:57:09;14.10;96.90
423;DHT22;198;48.752;9.180;2023-04-25T13:59:36;13.80;96.60
423;DHT22;198;48.752;9.180;2023-04-25T14:02:02;13.30;97.00
423;DHT22;198;48.752;9.180;2023-04-25T14:04:27;12.80;98.80
423;DHT22;198;48.752;9.180;2023-04-25T14:06:53;12.70;99.80
423;DHT22;198;48.752;9.180;2023-04-25T14:09:19;13.10;99.70
423;DHT22;198;48.752;9.180;2023-04-25T14:11:46;13.50;99.90
423;DHT22;198;48.752;9.180;2023-04-25T14:14:11;15.00;99.90
423;DHT22;198;48.752;9.180;2023-04-25T14:16:38;16.40;95.70
423;DHT22;198;48.752;9.180;2023-04-25T14:19:04;17.10;94.20
423;DHT22;198;48.752;9.180;2023-04-25T14:21:29;17.80;91.40
423;DHT22;198;48.752;9.180;2023-04-25T14:23:57;18.20;85.20
423;DHT22;198;48.752;9.180;2023-04-25T14:26:23;18.30;84.10
423;DHT22;198;48.752;9.180;2023-04-25T14:28:48;18.20;83.20
423;DHT22;198;48.752;9.180;2023-04-25T14:31:14;17.60;79.00
423;DHT22;198;48.752;9.180;2023-04-25T14:33:39;17.20;80.30
423;DHT22;198;48.752;9.180;2023-04-25T14:36:07;16.80;86.20
423;DHT22;198;48.752;9.180;2023-04-25T14:38:33;16.80;85.90
423;DHT22;198;48.752;9.180;2023-04-25T14:40:58;18.00;81.80
423;DHT22;198;48.752;9.180;2023-04-25T14:43:24;18.30;74.90
423;DHT22;198;48.752;9.180;2023-04-25T14:45:49;18.10;73.50
423;DHT22;198;48.752;9.180;2023-04-25T14:48:15;17.40;72.00
423;DHT22;198;48.752;9.180;2023-04-25T14:50:43;16.60;74.00
423;DHT22;198;48.752;9.180;2023-04-25T14:53:08;15.60;73.50
423;DHT22;198;48.752;9.180;2023-04-25T14:55:34;14.70;78.70
423;DHT22;198;48.752;9.180;2023-04-25T14:58:00;14.30;82.30
423;DHT22;198;48.752;9.180;2023-04-25T15:00:26;14.20;85.80
423;DHT22;198;48.752;9.180;2023-04-25T15:02:51;14.60;88.40
423;DHT22;198;48.752;9.180;2023-04-25T15:05:17;14.80;86.70
423;DHT22;198;48.752;9.180;2023-04-25T15:07:43;15.00;86.70
423;DHT22;198;48.752;9.180;2023-04-25T15:10:10;15.10;85.10
423;DHT22;198;48.752;9.180;2023-04-25T15:12:45;15.30;84.80
423;DHT22;198;48.752;9.180;2023-04-25T15:15:11;16.20;83.40
423;DHT22;198;48.752;9.180;2023-04-25T15:17:41;18.20;76.20
423;DHT22;198;48.752;9.180;2023-04-25T15:20:08;19.00;71.60
423;DHT22;198;48.752;9.180;2023-04-25T15:22:39;19.30;64.80
423;DHT22;198;48.752;9.180;2023-04-25T15:25:06;18.80;64.00
423;DHT22;198;48.752;9.180;2023-04-25T15:27:33;17.80;63.40
423;DHT22;198;48.752;9.180;2023-04-25T15:30:07;17.20;67.40
423;DHT22;198;48.752;9.180;2023-04-25T15:32:33;16.90;70.00
423;DHT22;198;48.752;9.180;2023-04-25T15:35:01;16.10;71.40
423;DHT22;198;48.752;9.180;2023-04-25T15:37:27;15.70;74.30
423;DHT22;198;48.752;9.180;2023-04-25T15:42:26;15.30;75.80
423;DHT22;198;48.752;9.180;2023-04-25T15:44:51;15.30;75.90
423;DHT22;198;48.752;9.180;2023-04-25T15:47:17;15.20;76.60
423;DHT22;198;48.752;9.180;2023-04-25T15:49:42;14.90;77.60
423;DHT22;198;48.752;9.180;2023-04-25T15:52:08;14.60;78.00
423;DHT22;198;48.752;9.180;2023-04-25T15:54:33;14.30;79.00
423;DHT22;198;48.752;9.180;2023-04-25T15:56:59;14.00;80.70
423;DHT22;198;48.752;9.180;2023-04-25T15:59:24;13.70;81.70
423;DHT22;198;48.752;9.180;2023-04-25T16:01:50;13.60;85.80
423;DHT22;198;48.752;9.180;2023-04-25T16:04:15;13.60;84.90
423;DHT22;198;48.752;9.180;2023-04-25T16:06:41;13.40;85.60
423;DHT22;198;48.752;9.180;2023-04-25T16:09:06;13.20;85.70
423;DHT22;198;48.752;9.180;2023-04-25T16:11:32;13.00;87.60
423;DHT22;198;48.752;9.180;2023-04-25T16:13:58;12.70;89.90
423;DHT22;198;48.752;9.180;2023-04-25T16:16:23;12.60;90.40
423;DHT22;198;48.752;9.180;2023-04-25T16:18:49;12.40;91.50
423;DHT22;198;48.752;9.180;2023-04-25T16:21:14;12.10;93.30
423;DHT22;198;48.752;9.180;2023-04-25T16:23:41;11.90;92.90
423;DHT22;198;48.752;9.180;2023-04-25T16:26:06;11.70;95.30
423;DHT22;198;48.752;9.180;2023-04-25T16:28:33;11.70;96.20
423;DHT22;198;48.752;9.180;2023-04-25T16:30:58;11.70;96.90
423;DHT22;198;48.752;9.180;2023-04-25T16:33:24;11.60;97.60
423;DHT22;198;48.752;9.180;2023-04-25T16:35:50;11.50;98.40
423;DHT22;198;48.752;9.180;2023-04-25T16:38:17;11.50;99.50
423;DHT22;198;48.752;9.180;2023-04-25T16:40:42;11.50;99.90
423;DHT22;198;48.752;9.180;2023-04-25T16:43:08;11.50;99.90
423;DHT22;198;48.752;9.180;2023-04-25T16:45:34;11.50;99.90
423;DHT22;198;48.752;9.180;2023-04-25T16:47:59;11.50;99.90